Time;durP1;ratioP1;P1;durP2;ratioP2;P2;SDS_P1;SDS_P2;PMS_P1;PMS_P2;Temp;Humidity;BMP_temperature;BMP_pressure;BME280_temperature;BME280_humidity;BME280_pressure;Samples;Min_cycle;Max_cycle;Signal;HPM_P1;HPM_P2
2021/03/30 00:01:21;;;;;;;39.25;23.30;;;256.10;1766.40;;;;;;4843179;29;20699;-70
2021/03/30 00:03:47;;;;;;;32.33;20.45;;;256.10;1766.40;;;;;;4843866;29;20030;-71
2021/03/30 00:06:13;;;;;;;41.97;22.40;;;256.10;1792.00;;;;;;4826701;29;20073;-71
2021/03/30 00:08:39;;;;;;;38.40;23.17;;;256.10;1766.40;;;;;;4826759;29;20030;-71
2021/03/30 00:11:05;;;;;;;42.38;26.70;;;256.10;1766.40;;;;;;4843196;29;20068;-70
2021/03/30 00:13:31;;;;;;;43.22;24.65;;;256.00;1792.00;;;;;;4826938;29;20105;-70
2021/03/30 00:15:57;;;;;;;39.83;23.58;;;256.00;1792.00;;;;;;4843116;29;20094;-71
2021/03/30 00:18:23;;;;;;;41.83;22.88;;;256.00;1817.60;;;;;;4843035;29;20082;-71
2021/03/30 00:20:49;;;;;;;35.92;23.42;;;256.00;1817.60;;;;;;4842703;29;20025;-70
2021/03/30 00:23:14;;;;;;;36.92;22.50;;;256.00;1817.60;;;;;;4842639;29;20467;-70
2021/03/30 00:25:40;;;;;;;32.45;21.02;;;256.00;1817.60;;;;;;4842282;29;20034;-71
2021/03/30 00:28:06;;;;;;;34.42;22.42;;;256.00;1843.20;;;;;;4845744;29;20198;-70
2021/03/30 00:30:32;;;;;;;36.85;23.42;;;256.10;1843.20;;;;;;4825954;29;20483;-70
2021/03/30 00:32:58;;;;;;;33.90;24.25;;;256.10;1817.60;;;;;;4831179;29;20025;-70
2021/03/30 00:35:23;;;;;;;45.30;24.55;;;256.10;1817.60;;;;;;4844737;29;20155;-70
2021/03/30 00:37:49;;;;;;;36.85;24.65;;;256.10;1792.00;;;;;;4826064;29;20170;-70
2021/03/30 00:40:16;;;;;;;49.45;28.45;;;256.10;1817.60;;;;;;4847512;29;20048;-70
2021/03/30 00:42:41;;;;;;;53.90;31.02;;;256.10;1817.60;;;;;;4833482;29;20032;-70
2021/03/30 00:45:09;;;;;;;72.35;45.13;;;256.00;1817.60;;;;;;4842729;29;20026;-69
2021/03/30 00:47:38;;;;;;;69.80;42.28;;;256.00;1817.60;;;;;;4825864;29;20029;-70
2021/03/30 00:50:06;;;;;;;61.25;38.67;;;231.20;1843.20;;;;;;4844046;29;20082;-70
2021/03/30 00:52:32;;;;;;;67.22;42.90;;;231.10;1868.80;;;;;;4826271;29;20113;-70
2021/03/30 00:54:57;;;;;;;72.30;41.55;;;231.00;1868.80;;;;;;4842031;29;20117;-70
2021/03/30 00:57:23;;;;;;;61.03;36.63;;;231.00;1894.40;;;;;;4829076;29;20037;-70
2021/03/30 00:59:49;;;;;;;53.40;34.47;;;231.10;1894.40;;;;;;4832901;29;20038;-70
2021/03/30 01:02:15;;;;;;;51.05;32.35;;;231.00;1894.40;;;;;;4842638;29;20032;-70
2021/03/30 01:04:41;;;;;;;53.85;29.52;;;231.00;1894.40;;;;;;4842196;29;20503;-72
2021/03/30 01:07:07;;;;;;;39.95;25.60;;;231.00;1894.40;;;;;;4842372;29;20030;-71
2021/03/30 01:09:58;;;;;;;40.38;23.70;;;231.00;1894.40;;;;;;4831718;29;20091;-71
2021/03/30 01:13:01;;;;;;;41.33;24.20;;;231.00;1868.80;;;;;;4848071;29;20428;-72
2021/03/30 01:15:51;;;;;;;47.45;25.55;;;231.10;1868.80;;;;;;4836707;29;20034;-72
2021/03/30 01:18:38;;;;;;;66.70;41.05;;;231.10;1868.80;;;;;;4832584;29;20057;-72
2021/03/30 01:21:32;;;;;;;53.72;30.63;;;231.10;1868.80;;;;;;4842179;29;20091;-71
2021/03/30 01:24:19;;;;;;;45.83;28.45;;;231.10;1843.20;;;;;;4817253;29;20058;-71
2021/03/30 01:26:57;;;;;;;;;;;231.10;1843.20;;;;;;4844934;29;20041;-69
2021/03/30 01:29:50;;;;;;;34.85;23.00;;;231.20;1843.20;;;;;;4823996;29;19935;-71
2021/03/30 01:32:33;;;;;;;39.00;24.77;;;231.20;1843.20;;;;;;4847976;29;20473;-71
2021/03/30 01:35:00;;;;;;;34.65;22.48;;;231.20;1843.20;;;;;;4825327;29;21040;-71
2021/03/30 01:37:27;;;;;;;36.55;20.80;;;231.20;1843.20;;;;;;4826769;29;20121;-71
2021/03/30 01:39:58;;;;;;;27.90;19.90;;;231.20;1817.60;;;;;;4825188;29;20081;-71
2021/03/30 01:42:28;;;;;;;31.77;20.90;;;231.20;1817.60;;;;;;4824465;29;20063;-71
2021/03/30 01:44:55;;;;;;;33.28;20.08;;;231.20;1817.60;;;;;;4823425;29;20022;-71
2021/03/30 01:47:21;;;;;;;31.67;21.45;;;231.30;1817.60;;;;;;4824745;29;20034;-71
2021/03/30 01:49:48;;;;;;;39.92;23.40;;;231.30;1817.60;;;;;;4836527;29;20488;-71
2021/03/30 01:52:17;;;;;;;29.63;21.38;;;231.30;1817.60;;;;;;4846885;29;20030;-72
2021/03/30 01:54:44;;;;;;;41.72;25.65;;;231.30;1817.60;;;;;;4841206;29;20495;-71
2021/03/30 01:57:11;;;;;;;34.70;24.02;;;231.30;1817.60;;;;;;4847526;29;20065;-72
2021/03/30 01:59:40;;;;;;;35.83;24.45;;;231.30;1817.60;;;;;;4841545;29;20030;-72
2021/03/30 02:02:07;;;;;;;36.40;24.70;;;231.20;1817.60;;;;;;4842018;29;20026;-72
2021/03/30 02:04:34;;;;;;;38.95;28.42;;;231.20;1843.20;;;;;;4841447;29;20026;-72
2021/03/30 02:07:00;;;;;;;42.35;28.38;;;231.20;1817.60;;;;;;4841682;29;20061;-72
2021/03/30 02:09:33;;;;;;;41.20;28.92;;;231.10;1843.20;;;;;;4827343;29;20057;-72
2021/03/30 02:12:07;;;;;;;47.47;26.20;;;231.00;1843.20;;;;;;4840373;29;20037;-72
2021/03/30 02:14:33;;;;;;;43.33;28.25;;;231.00;1843.20;;;;;;4841328;29;20022;-72
2021/03/30 02:17:02;;;;;;;45.00;28.50;;;231.00;1843.20;;;;;;4840901;29;20030;-72
2021/03/30 02:19:58;;;;;;;40.50;27.90;;;231.00;1843.20;;;;;;4840841;29;20074;-72
2021/03/30 02:22:31;;;;;;;41.22;28.23;;;231.10;1843.20;;;;;;4752914;30;20985;-72
2021/03/30 02:24:59;;;;;;;43.88;28.75;;;231.10;1868.80;;;;;;4748703;30;20036;-73
2021/03/30 02:27:27;;;;;;;45.92;28.10;;;231.10;1868.80;;;;;;4749026;30;20139;-72
2021/03/30 02:29:55;;;;;;;51.38;32.67;;;231.10;1868.80;;;;;;4748761;30;20055;-72
2021/03/30 02:32:23;;;;;;;51.72;29.85;;;231.10;1868.80;;;;;;4748695;30;20036;-72
2021/03/30 02:34:52;;;;;;;48.42;32.80;;;231.10;1868.80;;;;;;4760379;30;20097;-71
2021/03/30 02:37:19;;;;;;;48.25;30.08;;;231.00;1868.80;;;;;;4733394;30;20089;-72
2021/03/30 02:39:46;;;;;;;50.40;29.48;;;231.00;1868.80;;;;;;4748850;30;20052;-72
2021/03/30 02:42:13;;;;;;;48.45;30.40;;;231.00;1868.80;;;;;;4731010;30;20029;-71
2021/03/30 02:44:40;;;;;;;55.30;30.27;;;231.00;1868.80;;;;;;4725490;30;20133;-71
2021/03/30 02:47:07;;;;;;;55.58;31.08;;;230.90;1894.40;;;;;;4743794;30;20036;-71
2021/03/30 02:49:35;;;;;;;51.67;32.03;;;230.90;1894.40;;;;;;4748455;30;20111;-71
2021/03/30 02:52:02;;;;;;;53.00;31.05;;;230.90;1894.40;;;;;;4747992;30;20407;-72
2021/03/30 02:54:28;;;;;;;50.35;30.10;;;230.80;1894.40;;;;;;4748056;30;20498;-72
2021/03/30 02:56:59;;;;;;;56.30;33.55;;;230.90;1894.40;;;;;;4748674;30;20058;-71
2021/03/30 02:59:26;;;;;;;52.38;32.60;;;230.90;1894.40;;;;;;4802449;29;20048;-71
2021/03/30 03:01:52;;;;;;;50.92;30.33;;;230.90;1894.40;;;;;;4840679;29;20440;-72
2021/03/30 03:04:18;;;;;;;59.15;36.55;;;230.90;1894.40;;;;;;4840415;29;20018;-71
2021/03/30 03:06:44;;;;;;;58.80;34.20;;;231.00;1894.40;;;;;;4840754;29;20376;-71
2021/03/30 03:09:12;;;;;;;47.90;29.40;;;231.00;1894.40;;;;;;4840503;29;20030;-72
2021/03/30 03:11:43;;;;;;;49.90;30.33;;;231.00;1894.40;;;;;;4840814;29;20038;-72
2021/03/30 03:14:10;;;;;;;46.65;29.27;;;231.00;1894.40;;;;;;4824400;29;20045;-72
2021/03/30 03:16:38;;;;;;;47.28;28.63;;;231.00;1894.40;;;;;;4824031;29;20034;-72
2021/03/30 03:19:08;;;;;;;47.67;29.58;;;231.00;1894.40;;;;;;4840839;29;20078;-72
2021/03/30 03:21:35;;;;;;;49.88;29.02;;;231.00;1894.40;;;;;;4840112;29;20473;-72
2021/03/30 03:24:03;;;;;;;50.88;29.33;;;231.00;1894.40;;;;;;4839850;29;20029;-73
2021/03/30 03:26:31;;;;;;;55.95;33.60;;;231.00;1894.40;;;;;;4840227;29;20046;-73
2021/03/30 03:28:58;;;;;;;43.60;29.48;;;231.10;1920.00;;;;;;4824150;29;20695;-72
2021/03/30 03:31:30;;;;;;;47.22;27.70;;;231.20;1894.40;;;;;;4840328;29;20140;-72
2021/03/30 03:34:02;;;;;;;59.42;29.50;;;231.10;1894.40;;;;;;4834574;29;20376;-72
2021/03/30 03:36:58;;;;;;;50.72;28.15;;;231.10;1894.40;;;;;;4840651;29;20026;-71
2021/03/30 03:39:24;;;;;;;44.00;27.10;;;231.20;1894.40;;;;;;4821244;29;20114;-72
2021/03/30 03:41:50;;;;;;;40.83;26.83;;;231.20;1894.40;;;;;;4840859;29;20042;-73
2021/03/30 03:44:15;;;;;;;37.45;24.98;;;231.20;1894.40;;;;;;4848794;29;20090;-72
2021/03/30 03:46:41;;;;;;;44.20;26.55;;;231.20;1894.40;;;;;;4823116;29;20037;-72
2021/03/30 03:49:08;;;;;;;38.85;27.15;;;231.20;1894.40;;;;;;4823767;29;20466;-71
2021/03/30 03:51:47;;;;;;;51.83;27.05;;;231.20;1894.40;;;;;;4839299;29;20117;-72
2021/03/30 03:54:17;;;;;;;37.67;25.05;;;231.30;1894.40;;;;;;4839958;29;20029;-72
2021/03/30 03:56:46;;;;;;;38.22;24.35;;;231.20;1894.40;;;;;;4840332;29;20488;-71
2021/03/30 03:59:32;;;;;;;36.85;23.90;;;231.30;1894.40;;;;;;4843049;29;20387;-72
2021/03/30 04:02:16;;;;;;;36.58;23.98;;;231.30;1894.40;;;;;;4832550;29;20045;-71
2021/03/30 04:05:07;;;;;;;41.28;26.27;;;231.30;1894.40;;;;;;4828102;29;20056;-72
2021/03/30 04:08:07;;;;;;;38.25;23.65;;;256.00;1894.40;;;;;;4842948;29;20083;-71
2021/03/30 04:10:35;;;;;;;39.25;25.00;;;256.00;1894.40;;;;;;4843558;29;20021;-71
2021/03/30 04:13:03;;;;;;;40.38;24.80;;;256.00;1894.40;;;;;;4845768;29;20030;-71
2021/03/30 04:15:29;;;;;;;37.45;23.70;;;256.00;1894.40;;;;;;4841957;29;20028;-71
2021/03/30 04:17:55;;;;;;;48.90;25.33;;;256.10;1894.40;;;;;;4842172;29;20030;-71
2021/03/30 04:20:22;;;;;;;34.13;24.85;;;256.10;1894.40;;;;;;4826056;29;20066;-71
2021/03/30 04:22:59;;;;;;;31.67;24.77;;;256.10;1868.80;;;;;;4843158;29;20044;-72
2021/03/30 04:25:26;;;;;;;37.53;24.65;;;256.10;1868.80;;;;;;4847804;29;20030;-72
2021/03/30 04:27:52;;;;;;;43.20;25.55;;;256.10;1868.80;;;;;;4843080;29;20054;-72
2021/03/30 04:30:18;;;;;;;41.15;26.38;;;256.00;1894.40;;;;;;4843105;29;20026;-72
2021/03/30 04:32:45;;;;;;;42.10;26.02;;;256.00;1894.40;;;;;;4825799;29;20411;-71
2021/03/30 04:35:12;;;;;;;52.17;28.73;;;256.00;1920.00;;;;;;4842242;29;20033;-72
2021/03/30 04:37:38;;;;;;;43.03;25.40;;;256.00;1920.00;;;;;;4842994;29;20030;-71
2021/03/30 04:40:06;;;;;;;45.58;25.50;;;256.10;1920.00;;;;;;4842128;29;20022;-71
2021/03/30 04:42:32;;;;;;;42.45;26.10;;;256.10;1894.40;;;;;;4842569;29;20034;-71
2021/03/30 04:44:58;;;;;;;46.05;25.92;;;256.20;1868.80;;;;;;4842145;29;20033;-71
2021/03/30 04:47:24;;;;;;;42.53;24.30;;;256.30;1868.80;;;;;;4826077;29;20022;-71
2021/03/30 04:49:50;;;;;;;37.38;25.70;;;256.40;1868.80;;;;;;4844369;29;20491;-71
2021/03/30 04:52:16;;;;;;;51.03;26.08;;;256.40;1843.20;;;;;;4825717;29;20026;-71
2021/03/30 04:54:42;;;;;;;40.80;25.88;;;256.30;1843.20;;;;;;4842359;29;20793;-71
2021/03/30 04:57:08;;;;;;;40.60;25.10;;;256.30;1868.80;;;;;;4842105;29;20040;-70
2021/03/30 04:59:34;;;;;;;46.35;24.98;;;256.40;1843.20;;;;;;4841546;29;20034;-71
2021/03/30 05:02:00;;;;;;;40.88;26.17;;;256.50;1817.60;;;;;;4825344;29;20403;-71
2021/03/30 05:04:25;;;;;;;38.60;25.52;;;256.60;1817.60;;;;;;4841731;29;20037;-71
2021/03/30 05:06:51;;;;;;;48.42;28.02;;;256.70;1817.60;;;;;;4841761;29;20097;-71
2021/03/30 05:09:17;;;;;;;52.78;27.52;;;256.80;1792.00;;;;;;4824980;29;20583;-71
2021/03/30 05:11:42;;;;;;;37.97;23.35;;;256.80;1792.00;;;;;;4840183;29;20030;-70
2021/03/30 05:14:08;;;;;;;39.38;24.60;;;256.80;1766.40;;;;;;4842119;29;20018;-70
2021/03/30 05:16:34;;;;;;;43.67;23.13;;;281.60;1766.40;;;;;;4841825;29;20034;-70
2021/03/30 05:18:59;;;;;;;42.55;20.10;;;281.60;1766.40;;;;;;4841772;29;20069;-71
2021/03/30 05:21:26;;;;;;;30.80;18.50;;;281.70;1766.40;;;;;;4841535;29;20079;-71
2021/03/30 05:23:51;;;;;;;26.30;16.92;;;281.80;1740.80;;;;;;4841865;29;20093;-71
2021/03/30 05:26:17;;;;;;;28.77;17.48;;;281.90;1715.20;;;;;;4840171;29;20159;-71
2021/03/30 05:28:43;;;;;;;33.70;18.00;;;282.10;1689.60;;;;;;4840931;29;20034;-71
2021/03/30 05:31:09;;;;;;;36.38;19.88;;;282.20;1689.60;;;;;;4824658;29;20040;-71
2021/03/30 05:33:35;;;;;;;35.40;18.85;;;282.30;1715.20;;;;;;4844514;29;20436;-70
2021/03/30 05:36:01;;;;;;;35.42;17.17;;;282.50;1689.60;;;;;;4833832;29;20089;-71
2021/03/30 05:38:27;;;;;;;27.77;17.52;;;307.20;1715.20;;;;;;4841097;29;20045;-71
2021/03/30 05:40:55;;;;;;;36.58;15.55;;;307.40;1689.60;;;;;;4840426;29;20690;-71
2021/03/30 05:43:21;;;;;;;23.98;14.77;;;307.50;1664.00;;;;;;4819372;29;20034;-71
2021/03/30 05:45:47;;;;;;;28.08;15.10;;;307.70;1664.00;;;;;;4824658;29;20033;-71
2021/03/30 05:48:15;;;;;;;28.13;15.75;;;307.80;1664.00;;;;;;4840381;29;20061;-71
2021/03/30 05:50:41;;;;;;;27.73;15.73;;;307.90;1638.40;;;;;;4840927;29;20022;-71
2021/03/30 05:53:10;;;;;;;27.42;14.32;;;308.00;1638.40;;;;;;4823098;29;20062;-71
2021/03/30 05:55:42;;;;;;;22.45;13.73;;;332.80;1638.40;;;;;;4823977;29;20045;-71
2021/03/30 05:58:09;;;;;;;22.48;15.00;;;332.90;1664.00;;;;;;4823688;29;20045;-71
2021/03/30 06:00:36;;;;;;;22.00;12.98;;;333.00;1664.00;;;;;;4822684;29;20108;-70
2021/03/30 06:03:21;;;;;;;21.77;13.30;;;333.10;1638.40;;;;;;4823340;29;20053;-71
2021/03/30 06:05:52;;;;;;;26.02;14.50;;;333.30;1612.80;;;;;;4839733;29;20026;-71
2021/03/30 06:08:21;;;;;;;25.67;13.63;;;333.50;1612.80;;;;;;4840476;29;20026;-71
2021/03/30 06:10:47;;;;;;;21.45;13.65;;;333.50;1612.80;;;;;;4840146;29;20088;-71
2021/03/30 06:13:13;;;;;;;20.95;13.50;;;333.60;1587.20;;;;;;4839359;29;20105;-71
2021/03/30 06:15:39;;;;;;;24.55;14.35;;;358.50;1561.60;;;;;;4839378;29;20114;-72
2021/03/30 06:18:19;;;;;;;23.80;13.50;;;358.50;1536.00;;;;;;4838268;29;20026;-72
2021/03/30 06:20:46;;;;;;;23.50;14.27;;;358.80;1510.40;;;;;;4838375;29;20420;-71
2021/03/30 06:23:12;;;;;;;27.42;18.70;;;359.00;1484.80;;;;;;4838051;29;20101;-71
2021/03/30 06:25:49;;;;;;;31.67;20.63;;;359.10;1484.80;;;;;;4837616;29;20109;-71
2021/03/30 06:28:29;;;;;;;35.67;25.52;;;384.00;1459.20;;;;;;4837995;29;20042;-71
2021/03/30 06:31:03;;;;;;;20.85;15.10;;;384.30;1433.60;;;;;;4833288;29;20503;-71
2021/03/30 06:33:51;;;;;;;17.17;12.77;;;384.30;1408.00;;;;;;4820281;29;20487;-72
2021/03/30 06:36:21;;;;;;;23.73;12.70;;;384.50;1382.40;;;;;;4837033;29;20064;-71
2021/03/30 06:38:54;;;;;;;21.48;11.48;;;384.70;1356.80;;;;;;4837227;29;20049;-71
2021/03/30 06:41:33;;;;;;;25.42;13.05;;;409.60;1382.40;;;;;;4837696;29;20026;-72
2021/03/30 06:44:26;;;;;;;21.73;15.52;;;410.00;1331.20;;;;;;4839327;29;20014;-71
2021/03/30 06:47:14;;;;;;;30.63;16.42;;;410.40;1305.60;;;;;;4838232;29;20502;-71
2021/03/30 06:50:04;;;;;;;26.92;16.55;;;435.50;1280.00;;;;;;4836933;29;20430;-72
2021/03/30 06:52:35;;;;;;;26.23;17.55;;;435.50;1254.40;;;;;;4816302;29;20064;-72
2021/03/30 06:55:22;;;;;;;23.27;16.77;;;435.70;1228.80;;;;;;4840638;29;20026;-73
2021/03/30 06:57:49;;;;;;;24.02;16.90;;;435.90;1203.20;;;;;;4840872;29;20034;-72
2021/03/30 07:00:20;;;;;;;27.38;12.13;;;436.00;1203.20;;;;;;4840312;29;20040;-72
2021/03/30 07:02:47;;;;;;;18.10;11.45;;;460.80;1203.20;;;;;;4840756;29;20018;-72
2021/03/30 07:05:24;;;;;;;19.95;12.57;;;460.90;1203.20;;;;;;4823773;29;20120;-72
2021/03/30 07:07:56;;;;;;;21.70;11.50;;;461.00;1177.60;;;;;;4840783;29;20484;-72
2021/03/30 07:10:22;;;;;;;19.25;11.05;;;461.00;1177.60;;;;;;4839992;29;20033;-72
2021/03/30 07:12:50;;;;;;;16.15;9.75;;;461.10;1177.60;;;;;;4821537;29;20126;-72
2021/03/30 07:15:17;;;;;;;14.85;8.30;;;461.30;1177.60;;;;;;4836954;29;20548;-72
2021/03/30 07:17:45;;;;;;;14.52;10.13;;;461.30;1152.00;;;;;;4840153;29;20022;-72
2021/03/30 07:20:15;;;;;;;21.60;9.65;;;461.00;1177.60;;;;;;4823752;29;20054;-72
2021/03/30 07:22:45;;;;;;;12.45;8.65;;;460.90;1177.60;;;;;;4840242;29;20026;-73
2021/03/30 07:25:14;;;;;;;15.13;9.48;;;461.10;1177.60;;;;;;4837650;29;20038;-73
2021/03/30 07:27:47;;;;;;;14.60;8.38;;;461.10;1177.60;;;;;;4837972;29;20085;-72
2021/03/30 07:30:14;;;;;;;15.15;8.82;;;461.20;1152.00;;;;;;4837893;29;20026;-73
2021/03/30 07:33:04;;;;;;;13.38;9.00;;;461.30;1152.00;;;;;;4840686;29;20098;-72
2021/03/30 07:35:33;;;;;;;16.00;9.57;;;461.50;1126.40;;;;;;4827952;29;20045;-73
2021/03/30 07:38:24;;;;;;;12.85;7.75;;;461.30;1152.00;;;;;;4819061;29;20030;-72
2021/03/30 07:40:50;;;;;;;17.02;9.00;;;461.10;1152.00;;;;;;4842290;29;20053;-72
2021/03/30 07:43:36;;;;;;;15.00;8.35;;;461.00;1203.20;;;;;;4843332;29;20030;-72
2021/03/30 07:46:04;;;;;;;12.40;7.88;;;460.80;1203.20;;;;;;4822218;29;20098;-72
2021/03/30 07:48:32;;;;;;;14.73;8.60;;;461.10;1203.20;;;;;;4840317;29;20067;-72
2021/03/30 07:51:06;;;;;;;11.63;7.10;;;461.40;1177.60;;;;;;4843447;29;20025;-72
2021/03/30 07:53:56;;;;;;;10.55;7.28;;;461.30;1177.60;;;;;;4832494;29;20061;-72
2021/03/30 07:56:24;;;;;;;12.85;7.38;;;461.40;1177.60;;;;;;4826116;29;20400;-72
2021/03/30 07:58:52;;;;;;;12.75;7.13;;;486.40;1152.00;;;;;;4843054;29;20102;-72
2021/03/30 08:01:29;;;;;;;13.00;8.10;;;461.50;1177.60;;;;;;4826733;29;20029;-72
2021/03/30 08:03:56;;;;;;;17.23;7.63;;;461.70;1177.60;;;;;;4826419;29;20023;-72
2021/03/30 08:06:31;;;;;;;12.32;6.05;;;486.40;1100.80;;;;;;4842506;29;20048;-71
2021/03/30 08:09:07;;;;;;;10.60;5.88;;;461.70;1075.20;;;;;;4824784;29;20033;-72
2021/03/30 08:11:53;;;;;;;12.80;6.28;;;486.50;1075.20;;;;;;4843213;29;20026;-72
2021/03/30 08:14:19;;;;;;;15.85;6.20;;;486.50;1075.20;;;;;;4824172;29;20034;-71
2021/03/30 08:16:47;;;;;;;11.00;6.72;;;461.60;1075.20;;;;;;4843612;29;20056;-72
2021/03/30 08:19:15;;;;;;;10.98;6.50;;;486.40;1126.40;;;;;;4842173;29;20044;-72
2021/03/30 08:21:55;;;;;;;11.95;6.43;;;486.40;1075.20;;;;;;4840508;29;20108;-72
2021/03/30 08:24:26;;;;;;;13.15;8.20;;;486.40;1075.20;;;;;;4843444;29;20025;-72
2021/03/30 08:26:53;;;;;;;17.25;10.07;;;486.60;1075.20;;;;;;4838017;29;20058;-74
2021/03/30 08:29:24;;;;;;;12.32;5.68;;;486.90;1024.00;;;;;;4825603;29;20404;-72
2021/03/30 08:31:53;;;;;;;13.43;6.60;;;486.70;1049.60;;;;;;4836971;29;20118;-72
2021/03/30 08:34:26;;;;;;;14.52;7.07;;;486.50;1049.60;;;;;;4822974;29;20384;-72
2021/03/30 08:36:55;;;;;;;15.32;6.53;;;486.70;1049.60;;;;;;4840074;29;20030;-72
2021/03/30 08:39:21;;;;;;;8.80;5.88;;;486.90;998.40;;;;;;4837074;29;20094;-72
2021/03/30 08:41:47;;;;;;;11.73;6.10;;;487.10;998.40;;;;;;4840579;29;20026;-72
2021/03/30 08:44:14;;;;;;;15.10;5.78;;;486.90;972.80;;;;;;4839251;29;20022;-73
2021/03/30 08:46:42;;;;;;;13.02;6.13;;;487.10;998.40;;;;;;4838337;29;20053;-72
2021/03/30 08:49:28;;;;;;;21.15;8.25;;;512.00;972.80;;;;;;4839683;29;20037;-73
2021/03/30 08:52:01;;;;;;;14.30;7.32;;;487.30;972.80;;;;;;4840202;29;20473;-71
2021/03/30 08:54:28;;;;;;;12.13;6.82;;;512.00;972.80;;;;;;4822307;29;20034;-71
2021/03/30 08:57:04;;;;;;;11.38;6.88;;;512.10;998.40;;;;;;4835173;29;20037;-72
2021/03/30 08:59:30;;;;;;;12.40;7.10;;;512.10;998.40;;;;;;4838059;29;20117;-72
2021/03/30 09:02:04;;;;;;;9.18;6.15;;;487.30;998.40;;;;;;4840345;29;20299;-72
2021/03/30 09:04:44;;;;;;;14.30;7.18;;;512.30;972.80;;;;;;4831807;29;20030;-72
2021/03/30 09:07:10;;;;;;;12.13;6.93;;;512.50;947.20;;;;;;4824710;29;20041;-72
2021/03/30 09:09:37;;;;;;;16.02;6.10;;;512.30;972.80;;;;;;4829404;29;20026;-74
2021/03/30 09:12:05;;;;;;;11.98;7.15;;;512.40;947.20;;;;;;4838795;29;20041;-73
2021/03/30 09:14:32;;;;;;;13.90;6.18;;;512.90;947.20;;;;;;4841162;29;20030;-73
2021/03/30 09:17:06;;;;;;;13.05;6.75;;;538.10;921.60;;;;;;4821525;29;20034;-73
2021/03/30 09:19:41;;;;;;;28.52;6.90;;;537.80;921.60;;;;;;4836713;29;20030;-73
2021/03/30 09:27:22;;;;;;;14.80;7.65;;;564.10;870.40;;;;;;4839240;29;20046;-73
2021/03/30 09:29:53;;;;;;;19.65;8.98;;;589.00;844.80;;;;;;4839971;29;20731;-73
2021/03/30 09:32:19;;;;;;;9.35;5.95;;;589.40;819.20;;;;;;4839122;29;20037;-73
2021/03/30 09:34:46;;;;;;;9.52;6.50;;;589.10;819.20;;;;;;4840637;29;20483;-72
2021/03/30 09:37:11;;;;;;;10.23;6.53;;;589.30;844.80;;;;;;4827326;29;20519;-72
2021/03/30 09:39:38;;;;;;;11.70;7.40;;;564.10;870.40;;;;;;4839341;29;20035;-72
2021/03/30 09:42:05;;;;;;;11.93;7.10;;;564.10;844.80;;;;;;4838008;29;20034;-72
2021/03/30 09:44:40;;;;;;;11.60;7.53;;;589.10;819.20;;;;;;4835664;29;20022;-73
2021/03/30 09:47:06;;;;;;;9.85;5.60;;;589.20;819.20;;;;;;4838713;29;20031;-72
2021/03/30 09:49:33;;;;;;;11.77;7.00;;;589.60;793.60;;;;;;4839493;29;20090;-72
2021/03/30 09:52:01;;;;;;;9.98;7.05;;;589.40;819.20;;;;;;4839428;29;20071;-72
2021/03/30 09:54:30;;;;;;;13.77;7.80;;;563.70;870.40;;;;;;4839686;29;20053;-72
2021/03/30 09:57:09;;;;;;;14.95;7.22;;;563.90;870.40;;;;;;4818573;29;20093;-72
2021/03/30 09:59:35;;;;;;;15.00;7.88;;;589.20;844.80;;;;;;4838350;29;20037;-72
2021/03/30 10:02:02;;;;;;;15.30;7.13;;;589.50;819.20;;;;;;4839642;29;20109;-72
2021/03/30 10:04:32;;;;;;;11.77;7.20;;;614.40;768.00;;;;;;4831433;29;20098;-71
2021/03/30 10:06:57;;;;;;;12.18;7.05;;;614.90;793.60;;;;;;4835816;29;20040;-72
2021/03/30 10:09:23;;;;;;;13.40;7.68;;;640.40;742.40;;;;;;4828108;29;20129;-74
2021/03/30 10:11:51;;;;;;;11.73;5.93;;;614.40;793.60;;;;;;4839203;29;20061;-72
2021/03/30 10:14:26;;;;;;;11.80;7.28;;;589.40;793.60;;;;;;4839034;29;20548;-72
2021/03/30 10:16:58;;;;;;;11.15;6.30;;;564.10;844.80;;;;;;4838616;29;20033;-72
2021/03/30 10:19:25;;;;;;;12.57;5.78;;;614.70;793.60;;;;;;4823141;29;20037;-73
2021/03/30 10:21:55;;;;;;;7.80;5.50;;;640.00;768.00;;;;;;4822491;29;20489;-73
2021/03/30 10:24:21;;;;;;;13.40;5.55;;;640.50;742.40;;;;;;4837113;29;20026;-73
2021/03/30 10:27:09;;;;;;;13.38;6.50;;;665.90;742.40;;;;;;4837673;29;20478;-73
2021/03/30 10:29:41;;;;;;;14.15;6.03;;;691.20;691.20;;;;;;4838168;29;20121;-72
2021/03/30 10:32:17;;;;;;;14.55;6.32;;;691.80;691.20;;;;;;4839049;29;20034;-72
2021/03/30 10:34:44;;;;;;;9.18;5.10;;;666.50;716.80;;;;;;4823164;29;20026;-72
2021/03/30 10:37:13;;;;;;;9.52;5.85;;;666.30;716.80;;;;;;4840394;29;20030;-72
2021/03/30 10:39:42;;;;;;;12.00;6.30;;;691.20;716.80;;;;;;4823559;29;20086;-73
2021/03/30 10:42:19;;;;;;;13.45;5.20;;;717.30;691.20;;;;;;4822305;29;20030;-72
2021/03/30 10:44:56;;;;;;;9.07;5.07;;;717.10;691.20;;;;;;4817722;29;20392;-73
2021/03/30 10:47:27;;;;;;;11.80;4.90;;;717.40;665.60;;;;;;4838375;29;20033;-73
2021/03/30 10:49:54;;;;;;;7.63;4.80;;;717.10;665.60;;;;;;4821926;29;20022;-73
2021/03/30 10:52:26;;;;;;;11.73;6.13;;;717.60;640.00;;;;;;4821402;29;20120;-72
2021/03/30 10:54:55;;;;;;;13.25;5.88;;;692.10;665.60;;;;;;4839306;29;20088;-73
2021/03/30 10:57:23;;;;;;;7.82;5.32;;;691.70;691.20;;;;;;4831942;29;20030;-72
2021/03/30 10:59:49;;;;;;;8.57;5.68;;;692.00;691.20;;;;;;4821865;29;20029;-73
2021/03/30 11:02:16;;;;;;;8.02;5.05;;;716.80;691.20;;;;;;4835769;29;20033;-72
2021/03/30 11:04:42;;;;;;;9.27;5.15;;;691.80;665.60;;;;;;4820821;29;20121;-73
2021/03/30 11:07:09;;;;;;;8.50;5.05;;;691.80;665.60;;;;;;4838274;29;20086;-73
2021/03/30 11:09:36;;;;;;;11.60;5.35;;;691.90;665.60;;;;;;4840002;29;20030;-72
2021/03/30 11:12:02;;;;;;;9.93;6.18;;;691.80;691.20;;;;;;4826160;29;20034;-73
2021/03/30 11:14:28;;;;;;;13.88;5.25;;;691.70;691.20;;;;;;4827117;29;20041;-73
2021/03/30 11:16:54;;;;;;;10.02;5.97;;;717.30;691.20;;;;;;4843180;29;20034;-73
2021/03/30 11:19:20;;;;;;;9.85;4.80;;;717.40;691.20;;;;;;4840142;29;20037;-73
2021/03/30 11:21:46;;;;;;;9.95;6.05;;;742.90;640.00;;;;;;4844585;29;20030;-73
2021/03/30 11:24:19;;;;;;;10.48;5.65;;;742.70;665.60;;;;;;4843567;29;20041;-73
2021/03/30 11:26:48;;;;;;;12.73;6.10;;;742.50;665.60;;;;;;4842264;29;20037;-73
2021/03/30 11:29:29;;;;;;;7.30;4.95;;;742.40;640.00;;;;;;4842467;29;20050;-72
2021/03/30 11:34:45;;;;;;;8.70;5.20;;;768.30;588.80;;;;;;4839799;29;20406;-73
2021/03/30 11:39:59;;;;;;;10.15;6.53;;;743.20;614.40;;;;;;4779112;29;20192;-73
2021/03/30 11:42:26;;;;;;;12.27;4.97;;;768.00;614.40;;;;;;4780203;29;20130;-72
2021/03/30 11:44:52;;;;;;;14.45;5.82;;;768.70;588.80;;;;;;4783140;29;20394;-73
2021/03/30 11:47:18;;;;;;;9.57;5.97;;;768.20;588.80;;;;;;4780929;29;20043;-73
2021/03/30 11:49:44;;;;;;;11.45;6.97;;;768.00;614.40;;;;;;4767358;30;20035;-73
2021/03/30 11:52:10;;;;;;;9.13;6.20;;;742.40;665.60;;;;;;4783705;29;20062;-73
2021/03/30 11:54:36;;;;;;;13.88;7.47;;;743.00;640.00;;;;;;4778311;29;20054;-73
2021/03/30 11:57:03;;;;;;;8.43;6.53;;;742.60;691.20;;;;;;4784262;29;20689;-73
2021/03/30 11:59:29;;;;;;;11.73;6.53;;;742.90;665.60;;;;;;4783075;29;20043;-73
2021/03/30 12:01:55;;;;;;;10.57;6.20;;;743.00;665.60;;;;;;4784344;29;20418;-73
2021/03/30 12:04:21;;;;;;;10.50;6.22;;;742.70;665.60;;;;;;4779005;29;20044;-73
2021/03/30 12:06:47;;;;;;;8.13;6.13;;;717.40;665.60;;;;;;4784371;29;20035;-73
2021/03/30 12:09:13;;;;;;;9.38;5.18;;;717.20;665.60;;;;;;4780836;29;20626;-73
2021/03/30 12:11:43;;;;;;;10.75;5.60;;;691.60;691.20;;;;;;4771448;29;20394;-72
2021/03/30 12:14:10;;;;;;;10.48;6.45;;;691.90;665.60;;;;;;4781473;29;20504;-72
2021/03/30 12:16:36;;;;;;;10.30;6.68;;;666.30;716.80;;;;;;4808901;29;20038;-73
2021/03/30 12:19:02;;;;;;;11.30;6.50;;;665.80;742.40;;;;;;4846253;29;20036;-73
2021/03/30 12:21:28;;;;;;;8.75;6.22;;;640.00;742.40;;;;;;4847693;29;20026;-72
2021/03/30 12:23:54;;;;;;;14.30;7.18;;;615.00;768.00;;;;;;4837061;29;20041;-73
2021/03/30 12:26:19;;;;;;;10.23;5.90;;;614.40;844.80;;;;;;4824533;29;20548;-72
2021/03/30 12:28:45;;;;;;;13.30;7.13;;;640.20;742.40;;;;;;4848388;29;20037;-73
2021/03/30 12:31:11;;;;;;;10.73;6.55;;;666.50;742.40;;;;;;4842339;29;20105;-72